createdAt,value
2019-06-10T00:02:07.283Z,1.27
2019-06-10T00:04:37.013Z,1.67
2019-06-10T00:07:07.379Z,1.53
2019-06-10T00:09:37.410Z,1.63
2019-06-10T00:12:09.118Z,1.80
2019-06-10T00:14:41.893Z,1.73
2019-06-10T00:17:11.818Z,1.53
2019-06-10T00:19:41.771Z,1.20
2019-06-10T00:22:11.845Z,1.30
2019-06-10T00:24:41.505Z,2.07
2019-06-10T00:27:11.750Z,1.70
2019-06-10T00:29:42.103Z,1.57
2019-06-10T00:32:13.176Z,1.30
2019-06-10T00:34:43.052Z,1.50
2019-06-10T00:37:14.663Z,1.60
2019-06-10T00:39:43.894Z,1.30
2019-06-10T00:42:15.255Z,1.50
2019-06-10T00:44:44.625Z,1.90
2019-06-10T00:47:15.194Z,2.77
2019-06-10T00:49:45.072Z,1.50
2019-06-10T00:52:14.633Z,1.47
2019-06-10T00:54:44.108Z,1.90
2019-06-10T00:57:13.921Z,1.37
2019-06-10T00:59:43.456Z,1.57
2019-06-10T01:02:14.528Z,1.67
2019-06-10T01:04:44.459Z,2.27
2019-06-10T01:07:14.889Z,1.50
2019-06-10T01:09:44.620Z,1.70
2019-06-10T01:12:15.030Z,2.00
2019-06-10T01:14:44.778Z,2.20
2019-06-10T01:17:15.514Z,1.97
2019-06-10T01:19:45.245Z,1.70
2019-06-10T01:22:15.916Z,1.60
2019-06-10T01:24:46.073Z,1.60
2019-06-10T01:27:15.723Z,1.93
2019-06-10T01:29:45.304Z,1.83
2019-06-10T01:32:15.120Z,1.80
2019-06-10T01:34:44.750Z,1.80
2019-06-10T01:37:14.821Z,1.97
2019-06-10T01:39:45.497Z,2.23
2019-06-10T01:42:15.898Z,1.30
2019-06-10T01:44:46.324Z,1.90
2019-06-10T01:47:17.406Z,2.07
2019-06-10T01:49:47.105Z,1.77
2019-06-10T01:52:17.878Z,2.00
2019-06-10T01:54:47.960Z,1.80
2019-06-10T01:57:18.677Z,2.10
2019-06-10T01:59:50.723Z,2.23
2019-06-10T02:02:23.845Z,2.57
2019-06-10T02:04:53.295Z,1.60
2019-06-10T02:07:23.361Z,1.50
2019-06-10T02:09:52.807Z,1.80
2019-06-10T02:12:24.037Z,1.90
2019-06-10T02:14:53.502Z,1.90
2019-06-10T02:17:23.867Z,1.67
2019-06-10T02:19:53.771Z,2.47
2019-06-10T02:22:24.205Z,2.70
2019-06-10T02:24:54.134Z,1.87
2019-06-10T02:27:23.825Z,2.10
2019-06-10T02:29:53.434Z,1.80
2019-06-10T02:32:31.955Z,1.60
2019-06-10T02:35:07.966Z,1.47
2019-06-10T02:37:31.909Z,1.60
2019-06-10T02:39:56.723Z,2.23
2019-06-10T02:42:36.023Z,2.00
2019-06-10T02:45:06.829Z,2.27
2019-06-10T02:47:37.813Z,1.83
2019-06-10T02:50:09.345Z,2.00
2019-06-10T02:52:39.085Z,2.47
2019-06-10T02:55:08.935Z,1.50
2019-06-10T02:57:40.391Z,1.70
2019-06-10T03:00:20.780Z,2.43
2019-06-10T03:02:45.123Z,2.10
2019-06-10T03:05:14.644Z,2.50
2019-06-10T03:07:44.944Z,1.90
2019-06-10T03:10:16.435Z,2.40
2019-06-10T03:12:46.039Z,1.70
2019-06-10T03:15:15.827Z,1.90
2019-06-10T03:17:45.307Z,2.13
2019-06-10T03:20:15.902Z,1.93
2019-06-10T03:22:45.492Z,1.60
2019-06-10T03:25:34.263Z,2.10
2019-06-10T03:28:03.836Z,2.00
2019-06-10T03:30:47.264Z,2.40
2019-06-10T03:33:05.203Z,2.20
2019-06-10T03:35:34.741Z,2.27
2019-06-10T03:38:04.253Z,1.97
2019-06-10T03:40:33.776Z,2.40
2019-06-10T03:43:03.323Z,2.77
2019-06-10T03:45:33.136Z,2.40
2019-06-10T03:48:03.705Z,1.97
2019-06-10T03:50:33.271Z,1.93
2019-06-10T03:53:04.343Z,1.83
2019-06-10T03:55:34.080Z,2.00
2019-06-10T03:58:03.634Z,1.73
2019-06-10T04:00:36.171Z,1.90
2019-06-10T04:03:04.453Z,1.80
2019-06-10T04:05:34.010Z,2.03
2019-06-10T04:08:03.559Z,2.37
2019-06-10T04:10:33.035Z,2.07
2019-06-10T04:13:02.733Z,1.90
2019-06-10T04:15:32.642Z,2.57
2019-06-10T04:18:03.954Z,1.63
2019-06-10T04:20:33.403Z,2.10
2019-06-10T04:23:02.930Z,2.00
2019-06-10T04:25:32.547Z,2.20
2019-06-10T04:28:03.157Z,2.50
2019-06-10T04:30:32.823Z,2.27
2019-06-10T04:33:02.409Z,2.40
2019-06-10T04:35:33.659Z,1.90
2019-06-10T04:38:03.603Z,2.70
2019-06-10T04:40:33.156Z,3.20
2019-06-10T04:43:03.054Z,2.23
2019-06-10T04:45:32.635Z,2.50
2019-06-10T04:48:03.039Z,2.50
2019-06-10T04:50:41.641Z,2.30
2019-06-10T04:53:03.808Z,2.57
2019-06-10T04:55:33.373Z,2.53
2019-06-10T04:58:03.413Z,2.63
2019-06-10T05:00:33.247Z,2.20
2019-06-10T05:03:02.971Z,2.80
2019-06-10T05:05:32.916Z,2.80
2019-06-10T05:08:02.770Z,3.07
2019-06-10T05:10:33.249Z,2.83
2019-06-10T05:13:03.236Z,2.60
2019-06-10T05:15:34.988Z,2.47
2019-06-10T05:18:03.834Z,2.70
2019-06-10T05:20:50.970Z,2.80
2019-06-10T05:23:04.489Z,2.90
2019-06-10T05:25:34.095Z,3.10
2019-06-10T05:28:03.609Z,3.03
2019-06-10T05:30:34.081Z,2.47
2019-06-10T05:33:03.710Z,2.97
2019-06-10T05:35:33.999Z,2.40
2019-06-10T05:38:03.555Z,3.10
2019-06-10T05:40:34.285Z,3.03
2019-06-10T05:43:03.931Z,3.20
2019-06-10T05:45:35.167Z,3.50
2019-06-10T05:48:04.712Z,3.33
2019-06-10T05:50:34.983Z,2.80
2019-06-10T05:53:04.784Z,2.70
2019-06-10T05:55:35.225Z,2.93
2019-06-10T05:58:04.996Z,3.53
2019-06-10T06:00:35.504Z,2.73
2019-06-10T06:03:05.204Z,2.80
2019-06-10T06:05:36.195Z,3.43
2019-06-10T06:08:08.893Z,3.90
2019-06-10T06:10:37.857Z,3.47
2019-06-10T06:13:07.437Z,3.57
2019-06-10T06:15:38.069Z,2.70
2019-06-10T06:18:10.575Z,2.70
2019-06-10T06:20:39.195Z,2.80
2019-06-10T06:23:09.227Z,2.90
2019-06-10T06:25:42.939Z,3.60
2019-06-10T06:28:12.436Z,3.20
2019-06-10T06:30:42.237Z,2.70
2019-06-10T06:33:13.584Z,3.33
2019-06-10T06:35:46.401Z,5.03
2019-06-10T06:38:14.571Z,3.40
2019-06-10T06:40:53.509Z,3.07
2019-06-10T06:43:22.216Z,3.07
2019-06-10T06:45:53.134Z,3.13
2019-06-10T06:48:22.798Z,2.73
2019-06-10T06:51:04.085Z,3.60
2019-06-10T06:53:32.376Z,2.90
2019-06-10T06:55:55.998Z,2.90
2019-06-10T06:58:25.624Z,3.17
2019-06-10T07:01:05.229Z,3.37
2019-06-10T07:03:26.481Z,3.40
2019-06-10T07:05:56.169Z,3.27
2019-06-10T07:08:28.143Z,2.63
2019-06-10T07:10:59.625Z,3.87
2019-06-10T07:13:31.500Z,2.80
2019-06-10T07:16:03.053Z,2.90
2019-06-10T07:18:38.880Z,3.00
2019-06-10T07:21:04.058Z,2.97
2019-06-10T07:23:36.165Z,3.00
2019-06-10T07:26:04.781Z,2.60
2019-06-10T07:28:37.454Z,2.57
2019-06-10T07:31:19.967Z,2.93
2019-06-10T07:33:39.259Z,3.57
2019-06-10T07:36:08.264Z,2.80
2019-06-10T07:38:39.897Z,2.30
2019-06-10T07:41:09.063Z,3.17
2019-06-10T07:43:42.552Z,2.47
2019-06-10T07:46:13.439Z,3.03
2019-06-10T07:48:47.853Z,2.87
2019-06-10T07:51:14.663Z,3.23
2019-06-10T07:53:46.578Z,3.60
2019-06-10T07:56:15.632Z,2.20
2019-06-10T07:58:47.633Z,2.70
2019-06-10T08:01:16.728Z,3.40
2019-06-10T08:03:46.717Z,2.80
2019-06-10T08:06:16.235Z,2.57
2019-06-10T08:08:47.204Z,2.80
2019-06-10T08:11:17.107Z,2.80
2019-06-10T08:13:47.987Z,3.33
2019-06-10T08:16:17.743Z,2.70
2019-06-10T08:19:15.998Z,3.20
2019-06-10T08:21:18.650Z,2.97
2019-06-10T08:23:48.587Z,3.20
2019-06-10T08:26:18.888Z,3.60
2019-06-10T08:28:48.848Z,3.00
2019-06-10T08:31:18.751Z,3.00
2019-06-10T08:33:49.198Z,3.40
2019-06-10T08:36:18.803Z,3.13
2019-06-10T08:38:48.782Z,2.90
2019-06-10T08:41:18.514Z,3.00
2019-06-10T08:43:48.528Z,3.07
2019-06-10T08:46:18.048Z,2.83
2019-06-10T08:48:49.407Z,3.00
2019-06-10T08:51:18.893Z,2.40
2019-06-10T08:53:50.025Z,3.30
2019-06-10T08:56:22.242Z,3.03
2019-06-10T08:58:53.816Z,2.83
2019-06-10T09:01:22.423Z,3.10
2019-06-10T09:03:53.733Z,3.00
2019-06-10T09:06:23.557Z,2.70
2019-06-10T09:08:54.729Z,2.93
2019-06-10T09:11:24.863Z,2.90
2019-06-10T09:13:54.474Z,3.00
2019-06-10T09:16:25.195Z,3.00
2019-06-10T09:18:55.570Z,3.10
2019-06-10T09:21:25.381Z,3.30
2019-06-10T09:23:59.843Z,2.40
2019-06-10T09:26:26.368Z,2.80
2019-06-10T09:28:56.719Z,2.70
2019-06-10T09:31:27.044Z,2.83
2019-06-10T09:33:57.295Z,2.60
2019-06-10T09:36:26.901Z,4.97
2019-06-10T09:38:56.997Z,3.10
2019-06-10T09:41:39.350Z,2.67
2019-06-10T09:43:57.978Z,2.40
2019-06-10T09:46:32.518Z,2.47
2019-06-10T09:49:02.240Z,2.60
2019-06-10T09:51:32.559Z,3.07
2019-06-10T09:54:06.432Z,2.37
2019-06-10T09:56:34.091Z,2.70
2019-06-10T09:59:04.594Z,2.60
2019-06-10T10:01:34.246Z,2.63
2019-06-10T10:04:04.762Z,1.90
2019-06-10T10:06:34.585Z,2.63
2019-06-10T10:09:06.224Z,2.37
2019-06-10T10:11:35.738Z,2.53
2019-06-10T10:14:09.027Z,2.93
2019-06-10T10:16:36.982Z,2.87
2019-06-10T10:19:06.630Z,2.03
2019-06-10T10:21:36.232Z,3.00
2019-06-10T10:24:10.481Z,2.67
2019-06-10T10:26:37.678Z,3.37
2019-06-10T10:29:07.715Z,2.40
2019-06-10T10:31:37.375Z,2.70
2019-06-10T10:34:06.996Z,3.30
2019-06-10T10:36:36.614Z,2.43
2019-06-10T10:39:08.091Z,2.47
2019-06-10T10:41:37.711Z,2.80
2019-06-10T10:44:07.848Z,3.07
2019-06-10T10:46:37.458Z,3.07
2019-06-10T10:49:06.976Z,2.63
2019-06-10T10:51:36.501Z,3.50
2019-06-10T10:55:09.192Z,2.90
2019-06-10T10:57:38.704Z,2.87
2019-06-10T11:00:09.271Z,3.40
2019-06-10T11:02:39.152Z,2.53
2019-06-10T11:05:12.681Z,2.83
2019-06-10T11:07:42.320Z,2.43
2019-06-10T11:10:13.602Z,2.20
2019-06-10T11:12:49.059Z,2.20
2019-06-10T11:15:23.193Z,3.00
2019-06-10T11:17:55.125Z,2.17
2019-06-10T11:20:24.371Z,1.90
2019-06-10T11:22:54.280Z,2.30
2019-06-10T11:25:23.900Z,2.17
2019-06-10T11:27:55.736Z,2.90
2019-06-10T11:30:24.924Z,2.20
2019-06-10T11:32:57.726Z,2.27
2019-06-10T11:35:26.074Z,2.33
2019-06-10T11:37:56.996Z,2.47
2019-06-10T11:40:27.433Z,2.17
2019-06-10T11:42:59.733Z,2.50
2019-06-10T11:45:29.147Z,4.00
2019-06-10T11:47:59.161Z,3.13
2019-06-10T11:50:29.276Z,2.70
2019-06-10T11:53:00.733Z,2.87
2019-06-10T11:55:30.354Z,2.33
2019-06-10T11:58:00.121Z,2.50
2019-06-10T12:00:33.118Z,2.77
2019-06-10T12:03:03.544Z,2.90
2019-06-10T12:05:33.276Z,2.70
2019-06-10T12:08:03.057Z,3.73
2019-06-10T12:10:33.119Z,2.60
2019-06-10T12:13:07.262Z,3.50
2019-06-10T12:16:19.935Z,3.20
2019-06-10T12:18:09.428Z,2.93
2019-06-10T12:20:42.515Z,3.47
2019-06-10T12:23:12.715Z,3.77
2019-06-10T12:25:43.705Z,2.20
2019-06-10T12:28:16.391Z,3.20
2019-06-10T12:30:55.464Z,3.07
2019-06-10T12:33:21.580Z,3.10
2019-06-10T12:35:54.398Z,2.80
2019-06-10T12:38:22.956Z,2.67
2019-06-10T12:40:56.835Z,3.10
2019-06-10T12:43:24.752Z,2.60
2019-06-10T12:45:55.913Z,3.10
2019-06-10T12:48:28.886Z,3.20
2019-06-10T12:51:05.811Z,2.70
2019-06-10T12:53:33.567Z,2.57
2019-06-10T12:56:10.123Z,3.40
2019-06-10T12:58:35.266Z,3.53
2019-06-10T13:01:06.199Z,2.47
2019-06-10T13:03:36.798Z,2.90
2019-06-10T13:06:09.937Z,2.17
2019-06-10T13:08:42.927Z,2.30
2019-06-10T13:11:15.230Z,2.13
2019-06-10T13:13:45.414Z,3.03
2019-06-10T13:16:16.919Z,3.40
2019-06-10T13:18:49.050Z,3.73
2019-06-10T13:21:18.770Z,2.60
2019-06-10T13:23:50.626Z,3.40
2019-06-10T13:26:22.999Z,2.63
2019-06-10T13:28:54.956Z,3.17
2019-06-10T13:31:25.121Z,3.00
2019-06-10T13:34:11.120Z,2.50
2019-06-10T13:36:33.163Z,2.47
2019-06-10T13:39:06.271Z,2.33
2019-06-10T13:41:34.240Z,2.53
2019-06-10T13:44:04.240Z,2.43
2019-06-10T13:46:33.855Z,2.93
2019-06-10T13:49:06.616Z,3.23
2019-06-10T13:51:35.637Z,2.80
2019-06-10T13:54:06.844Z,3.40
2019-06-10T13:56:46.241Z,2.97
2019-06-10T13:59:11.052Z,2.73
2019-06-10T14:01:39.744Z,3.20
2019-06-10T14:04:17.181Z,2.23
2019-06-10T14:06:49.604Z,2.80
2019-06-10T14:09:16.454Z,3.37
2019-06-10T14:11:43.226Z,2.80
2019-06-10T14:14:17.491Z,3.10
2019-06-10T14:16:44.229Z,4.03
2019-06-10T14:19:16.318Z,3.17
2019-06-10T14:21:45.985Z,3.60
2019-06-10T14:24:16.333Z,3.50
2019-06-10T14:26:46.064Z,2.60
2019-06-10T14:29:16.818Z,2.53
2019-06-10T14:31:47.772Z,3.10
2019-06-10T14:34:18.682Z,2.80
2019-06-10T14:36:48.627Z,2.80
2019-06-10T14:39:18.238Z,3.00
2019-06-10T14:41:48.030Z,2.50
2019-06-10T14:44:18.066Z,2.17
2019-06-10T14:46:47.714Z,4.30
2019-06-10T14:49:17.320Z,2.90
2019-06-10T14:51:46.782Z,3.60
2019-06-10T14:54:18.135Z,3.87
2019-06-10T14:56:53.772Z,2.63
2019-06-10T14:59:18.635Z,3.43
2019-06-10T15:01:48.154Z,3.00
2019-06-10T15:04:18.359Z,2.60
2019-06-10T15:06:48.937Z,2.90
2019-06-10T15:09:19.767Z,3.00
2019-06-10T15:11:49.316Z,2.43
2019-06-10T15:14:20.279Z,2.80
2019-06-10T15:16:50.036Z,3.30
2019-06-10T15:19:25.285Z,3.17
2019-06-10T15:21:52.345Z,2.83
2019-06-10T15:24:23.799Z,3.27
2019-06-10T15:27:08.970Z,3.27
2019-06-10T15:29:24.576Z,3.53
2019-06-10T15:32:09.176Z,3.50
2019-06-10T15:34:25.263Z,3.10
2019-06-10T15:36:54.775Z,2.50
2019-06-10T15:39:24.390Z,4.20
2019-06-10T15:41:53.836Z,3.13
2019-06-10T15:44:37.282Z,3.43
2019-06-10T15:46:54.406Z,3.33
2019-06-10T15:49:25.948Z,3.20
2019-06-10T15:51:55.106Z,2.97
2019-06-10T15:54:25.515Z,4.10
2019-06-10T15:56:56.576Z,3.10
2019-06-10T15:59:26.308Z,3.30
2019-06-10T16:01:55.788Z,2.57
2019-06-10T16:04:27.439Z,3.37
2019-06-10T16:06:56.712Z,3.53
2019-06-10T16:09:26.523Z,2.90
2019-06-10T16:11:56.125Z,3.07
2019-06-10T16:14:25.826Z,3.10
2019-06-10T16:16:55.364Z,4.17
2019-06-10T16:19:24.854Z,4.20
2019-06-10T16:21:54.446Z,4.07
2019-06-10T16:24:27.358Z,2.60
2019-06-10T16:26:55.245Z,3.73
2019-06-10T16:29:26.919Z,4.20
2019-06-10T16:32:16.337Z,3.60
2019-06-10T16:34:45.882Z,3.60
2019-06-10T16:37:15.453Z,3.20
2019-06-10T16:39:45.237Z,3.73
2019-06-10T16:42:15.487Z,4.40
2019-06-10T16:44:45.059Z,4.60
2019-06-10T16:47:14.582Z,4.20
2019-06-10T16:49:44.710Z,4.00
2019-06-10T16:52:14.262Z,3.80
2019-06-10T16:54:44.043Z,4.27
2019-06-10T16:57:13.782Z,3.70
2019-06-10T16:59:43.402Z,3.30
2019-06-10T17:02:13.217Z,3.83
2019-06-10T17:04:43.511Z,4.60
2019-06-10T17:07:13.427Z,4.33
2019-06-10T17:09:43.923Z,4.07
2019-06-10T17:12:13.671Z,5.70
2019-06-10T17:14:43.419Z,4.90
2019-06-10T17:17:13.378Z,4.80
2019-06-10T17:19:42.933Z,5.43
2019-06-10T17:22:12.727Z,4.90
2019-06-10T17:24:42.423Z,5.17
2019-06-10T17:27:13.104Z,5.10
2019-06-10T17:29:42.818Z,5.20
2019-06-10T17:32:15.361Z,5.03
2019-06-10T17:34:45.299Z,4.63
2019-06-10T17:37:15.373Z,6.87
2019-06-10T17:39:44.897Z,4.97
2019-06-10T17:42:14.539Z,5.80
2019-06-10T17:44:44.288Z,5.63
2019-06-10T17:47:34.703Z,4.80
2019-06-10T17:50:04.166Z,4.90
2019-06-10T17:52:36.591Z,5.57
2019-06-10T17:55:05.477Z,5.37
2019-06-10T17:57:36.952Z,5.50
2019-06-10T18:00:12.349Z,5.37
2019-06-10T18:02:42.590Z,5.17
2019-06-10T18:05:12.761Z,5.73
2019-06-10T18:07:42.643Z,7.50
2019-06-10T18:10:13.243Z,6.63
2019-06-10T18:12:43.562Z,6.37
2019-06-10T18:15:13.535Z,6.53
2019-06-10T18:17:43.229Z,7.27
2019-06-10T18:20:13.538Z,7.10
2019-06-10T18:22:43.223Z,6.90
2019-06-10T18:25:13.079Z,5.13
2019-06-10T18:27:42.911Z,5.80
2019-06-10T18:30:14.261Z,6.27
2019-06-10T18:32:43.967Z,6.33
2019-06-10T18:35:14.314Z,5.90
2019-06-10T18:37:44.073Z,5.00
2019-06-10T18:40:16.971Z,6.80
2019-06-10T18:42:46.799Z,7.93
2019-06-10T18:45:16.798Z,5.37
2019-06-10T18:47:46.404Z,6.00
2019-06-10T18:50:16.577Z,6.40
2019-06-10T18:52:46.200Z,6.80
2019-06-10T18:55:16.583Z,6.60
2019-06-10T18:57:49.620Z,5.93
2019-06-10T19:00:19.763Z,7.10
2019-06-10T19:03:08.682Z,6.77
2019-06-10T19:05:24.278Z,6.00
2019-06-10T19:07:56.349Z,7.73
2019-06-10T19:10:26.283Z,7.43
2019-06-10T19:12:56.126Z,7.53
2019-06-10T19:15:25.936Z,6.70
2019-06-10T19:17:56.857Z,6.90
2019-06-10T19:20:27.643Z,6.57
2019-06-10T19:22:57.534Z,6.90
2019-06-10T19:25:27.484Z,6.90
2019-06-10T19:27:57.061Z,6.20
2019-06-10T19:30:28.405Z,5.13
2019-06-10T19:32:57.962Z,6.07
2019-06-10T19:35:27.767Z,6.70
2019-06-10T19:37:57.275Z,6.00
2019-06-10T19:40:26.978Z,5.27
2019-06-10T19:42:56.647Z,6.53
2019-06-10T19:45:26.555Z,5.67
2019-06-10T19:47:56.774Z,5.30
2019-06-10T19:50:26.578Z,5.87
2019-06-10T19:52:56.148Z,5.77
2019-06-10T19:55:25.813Z,5.20
2019-06-10T19:57:55.357Z,5.50
2019-06-10T20:00:24.979Z,6.20
2019-06-10T20:02:54.794Z,6.13
2019-06-10T20:05:24.549Z,6.40
2019-06-10T20:07:54.152Z,5.90
2019-06-10T20:10:23.831Z,5.80
2019-06-10T20:12:53.809Z,5.40
2019-06-10T20:15:24.702Z,5.17
2019-06-10T20:17:57.354Z,6.03
2019-06-10T20:20:27.132Z,5.00
2019-06-10T20:22:57.627Z,6.37
2019-06-10T20:25:28.047Z,6.63
2019-06-10T20:27:57.629Z,8.47
2019-06-10T20:30:28.977Z,7.70
2019-06-10T20:33:03.365Z,6.70
2019-06-10T20:35:32.794Z,6.73
2019-06-10T20:38:04.939Z,5.77
2019-06-10T20:40:35.526Z,6.43
2019-06-10T20:43:05.630Z,5.33
2019-06-10T20:45:35.170Z,6.17
2019-06-10T20:48:04.732Z,6.43
2019-06-10T20:50:34.479Z,4.63
2019-06-10T20:53:14.029Z,5.17
2019-06-10T20:55:43.277Z,5.47
2019-06-10T20:58:12.303Z,6.10
2019-06-10T21:00:48.069Z,6.27
2019-06-10T21:03:12.854Z,6.27
2019-06-10T21:05:45.699Z,7.00
2019-06-10T21:08:15.616Z,6.30
2019-06-10T21:10:48.013Z,6.07
2019-06-10T21:13:16.868Z,5.60
2019-06-10T21:15:49.951Z,5.80
2019-06-10T21:18:17.714Z,5.83
2019-06-10T21:20:49.962Z,6.57
2019-06-10T21:23:19.107Z,5.87
2019-06-10T21:25:52.465Z,5.90
2019-06-10T21:28:23.624Z,7.30
2019-06-10T21:30:58.764Z,7.33
2019-06-10T21:33:27.032Z,7.70
2019-06-10T21:35:58.461Z,7.50
2019-06-10T21:38:28.402Z,8.13
2019-06-10T21:40:58.454Z,9.90
2019-06-10T21:43:29.692Z,12.50
2019-06-10T21:45:59.194Z,13.80
2019-06-10T21:48:32.353Z,15.57
2019-06-10T21:51:01.938Z,14.90
2019-06-10T21:53:31.836Z,14.90
2019-06-10T21:56:02.029Z,14.13
2019-06-10T21:58:32.836Z,15.30
2019-06-10T22:01:13.046Z,15.70
2019-06-10T22:04:18.628Z,12.80
2019-06-10T22:06:55.491Z,12.20
2019-06-10T22:09:22.449Z,12.10
2019-06-10T22:11:52.936Z,11.90
2019-06-10T22:14:23.367Z,12.23
2019-06-10T22:16:53.422Z,13.33
2019-06-10T22:19:24.251Z,11.50
2019-06-10T22:21:56.396Z,11.20
2019-06-10T22:24:24.918Z,12.37
2019-06-10T22:26:55.186Z,11.20
2019-06-10T22:29:26.349Z,10.67
2019-06-10T22:31:57.217Z,10.70
2019-06-10T22:34:27.097Z,12.07
2019-06-10T22:36:57.628Z,10.30
2019-06-10T22:39:27.469Z,12.10
2019-06-10T22:41:57.173Z,12.47
2019-06-10T22:44:26.878Z,11.57
2019-06-10T22:46:57.288Z,12.20
2019-06-10T22:49:26.934Z,11.33
2019-06-10T22:51:58.554Z,13.20
2019-06-10T22:54:28.040Z,12.53
2019-06-10T22:56:58.362Z,13.00
2019-06-10T22:59:28.067Z,13.70
2019-06-10T23:01:58.699Z,13.10
2019-06-10T23:04:28.875Z,12.50
2019-06-10T23:06:59.638Z,13.30
2019-06-10T23:09:30.033Z,14.13
2019-06-10T23:11:59.579Z,12.20
2019-06-10T23:14:30.177Z,13.10
2019-06-10T23:17:02.388Z,13.53
2019-06-10T23:19:33.115Z,12.90
2019-06-10T23:22:02.899Z,12.23
2019-06-10T23:24:32.682Z,13.20
2019-06-10T23:27:03.111Z,12.37
2019-06-10T23:29:33.100Z,12.57
2019-06-10T23:32:06.792Z,13.40
2019-06-10T23:34:33.691Z,13.47
2019-06-10T23:37:03.350Z,13.70
2019-06-10T23:39:33.511Z,13.20
2019-06-10T23:42:04.321Z,15.07
2019-06-10T23:44:33.992Z,13.30
2019-06-10T23:47:04.223Z,12.77
2019-06-10T23:49:33.838Z,13.53
2019-06-10T23:52:05.180Z,12.17
2019-06-10T23:54:34.647Z,11.90
2019-06-10T23:57:05.970Z,12.77
2019-06-10T23:59:35.257Z,11.80
